createdAt,value
2023-05-01T00:02:06.757Z,79.02
2023-05-01T00:04:33.916Z,79.08
2023-05-01T00:07:00.328Z,79.00
2023-05-01T00:09:29.826Z,78.98
2023-05-01T00:11:56.178Z,79.18
2023-05-01T00:14:22.564Z,79.25
2023-05-01T00:16:49.372Z,79.22
2023-05-01T00:19:18.622Z,79.34
2023-05-01T00:21:48.708Z,79.50
2023-05-01T00:24:16.997Z,79.65
2023-05-01T00:26:44.217Z,79.89
2023-05-01T00:29:10.818Z,80.20
2023-05-01T00:31:37.269Z,80.11
2023-05-01T00:34:05.101Z,79.88
2023-05-01T00:36:32.490Z,79.21
2023-05-01T00:38:59.241Z,79.51
2023-05-01T00:41:25.669Z,79.82
2023-05-01T00:43:52.094Z,80.25
2023-05-01T00:46:19.146Z,80.32
2023-05-01T00:48:45.591Z,80.51
2023-05-01T00:51:12.832Z,80.59
2023-05-01T00:53:41.480Z,80.64
2023-05-01T00:56:08.543Z,80.60
2023-05-01T00:58:34.910Z,80.37
2023-05-01T01:01:02.180Z,80.53
2023-05-01T01:03:28.786Z,80.37
2023-05-01T01:06:04.744Z,80.48
2023-05-01T01:08:39.802Z,80.29
2023-05-01T01:11:11.863Z,80.55
2023-05-01T01:13:58.115Z,80.96
2023-05-01T01:17:06.371Z,80.84
2023-05-01T01:20:03.990Z,80.93
2023-05-01T01:22:31.524Z,80.68
2023-05-01T01:25:28.033Z,80.98
2023-05-01T01:28:16.757Z,80.81
2023-05-01T01:31:09.509Z,81.21
2023-05-01T01:33:57.273Z,81.42
2023-05-01T01:36:39.925Z,81.33
2023-05-01T01:39:14.495Z,81.41
2023-05-01T01:41:46.516Z,81.08
2023-05-01T01:44:20.979Z,81.16
2023-05-01T01:46:50.389Z,81.44
2023-05-01T01:49:27.669Z,81.62
2023-05-01T01:51:56.954Z,81.32
2023-05-01T01:54:33.486Z,81.93
2023-05-01T01:57:02.527Z,82.05
2023-05-01T01:59:33.540Z,82.11
2023-05-01T02:02:02.179Z,82.21
2023-05-01T02:04:30.229Z,82.35
2023-05-01T02:06:58.493Z,81.97
2023-05-01T02:09:27.909Z,82.23
2023-05-01T02:11:55.947Z,82.04
2023-05-01T02:14:26.234Z,82.24
2023-05-01T02:16:53.857Z,82.22
2023-05-01T02:19:21.193Z,82.04
2023-05-01T02:21:49.988Z,81.82
2023-05-01T02:24:16.928Z,81.76
2023-05-01T02:26:49.791Z,82.47
2023-05-01T02:29:16.183Z,82.49
2023-05-01T02:31:42.541Z,82.59
2023-05-01T02:34:09.264Z,82.48
2023-05-01T02:36:35.592Z,82.48
2023-05-01T02:39:02.281Z,82.79
2023-05-01T02:41:31.036Z,83.20
2023-05-01T02:44:01.733Z,82.92
2023-05-01T02:46:30.848Z,82.72
2023-05-01T02:48:59.270Z,82.98
2023-05-01T02:51:27.677Z,83.08
2023-05-01T02:53:55.280Z,83.30
2023-05-01T02:56:22.027Z,83.70
2023-05-01T02:58:49.448Z,83.54
2023-05-01T03:01:16.075Z,83.38
2023-05-01T03:03:42.410Z,83.39
2023-05-01T03:06:09.025Z,83.59
2023-05-01T03:08:36.521Z,83.81
2023-05-01T03:11:07.353Z,83.98
2023-05-01T03:13:34.556Z,84.45
2023-05-01T03:16:01.476Z,84.55
2023-05-01T03:18:27.963Z,84.68
2023-05-01T03:20:55.013Z,84.48
2023-05-01T03:23:21.353Z,84.43
2023-05-01T03:25:47.684Z,84.46
2023-05-01T03:28:14.202Z,84.33
2023-05-01T03:30:40.574Z,84.15
2023-05-01T03:33:06.998Z,84.25
2023-05-01T03:35:33.430Z,83.94
2023-05-01T03:37:59.861Z,84.28
2023-05-01T03:40:26.168Z,84.24
2023-05-01T03:42:52.496Z,84.21
2023-05-01T03:45:18.837Z,84.16
2023-05-01T03:47:45.188Z,84.12
2023-05-01T03:50:11.634Z,84.37
2023-05-01T03:52:37.988Z,84.81
2023-05-01T03:55:04.817Z,85.04
2023-05-01T03:57:31.267Z,84.89
2023-05-01T03:59:57.893Z,84.31
2023-05-01T04:02:24.521Z,84.17
2023-05-01T04:04:51.059Z,83.90
2023-05-01T04:07:17.485Z,83.87
2023-05-01T04:09:43.808Z,83.80
2023-05-01T04:12:10.289Z,84.04
2023-05-01T04:14:36.643Z,84.13
2023-05-01T04:17:03.066Z,83.80
2023-05-01T04:19:29.409Z,83.98
2023-05-01T04:21:55.818Z,83.87
2023-05-01T04:24:22.156Z,84.07
2023-05-01T04:26:48.643Z,84.11
2023-05-01T04:29:15.251Z,84.00
2023-05-01T04:31:43.119Z,84.33
2023-05-01T04:34:09.614Z,84.38
2023-05-01T04:36:36.402Z,84.66
2023-05-01T04:39:05.705Z,84.76
2023-05-01T04:41:32.028Z,84.81
2023-05-01T04:43:58.457Z,84.90
2023-05-01T04:46:24.876Z,84.84
2023-05-01T04:48:51.299Z,84.81
2023-05-01T04:51:17.741Z,84.77
2023-05-01T04:53:44.200Z,84.59
2023-05-01T04:56:10.562Z,84.39
2023-05-01T04:58:36.931Z,84.03
2023-05-01T05:01:03.356Z,84.41
2023-05-01T05:03:29.797Z,84.28
2023-05-01T05:05:56.371Z,84.29
2023-05-01T05:08:22.807Z,83.74
2023-05-01T05:10:49.155Z,82.95
2023-05-01T05:13:15.526Z,83.25
2023-05-01T05:15:41.859Z,82.94
2023-05-01T05:18:08.287Z,83.07
2023-05-01T05:20:38.436Z,83.19
2023-05-01T05:23:04.743Z,83.24
2023-05-01T05:25:31.094Z,83.38
2023-05-01T05:27:57.582Z,83.31
2023-05-01T05:30:24.092Z,83.35
2023-05-01T05:32:50.729Z,82.88
2023-05-01T05:35:17.481Z,82.60
2023-05-01T05:37:46.092Z,82.35
2023-05-01T05:40:12.969Z,82.17
2023-05-01T05:42:39.405Z,81.63
2023-05-01T05:45:06.994Z,80.81
2023-05-01T05:47:33.390Z,80.08
2023-05-01T05:49:59.765Z,79.63
2023-05-01T05:52:26.077Z,79.80
2023-05-01T05:54:52.398Z,79.98
2023-05-01T05:57:18.905Z,79.11
2023-05-01T05:59:45.242Z,78.89
2023-05-01T06:02:11.588Z,79.39
2023-05-01T06:04:37.988Z,79.16
2023-05-01T06:07:06.219Z,78.72
2023-05-01T06:09:33.409Z,78.94
2023-05-01T06:11:59.833Z,79.19
2023-05-01T06:14:26.180Z,78.84
2023-05-01T06:16:52.520Z,78.85
2023-05-01T06:19:18.895Z,78.48
2023-05-01T06:21:45.257Z,77.73
2023-05-01T06:24:12.528Z,76.46
2023-05-01T06:26:38.916Z,76.37
2023-05-01T06:29:05.329Z,76.06
2023-05-01T06:31:31.764Z,76.11
2023-05-01T06:33:58.294Z,75.51
2023-05-01T06:36:24.627Z,75.20
2023-05-01T06:38:51.075Z,75.19
2023-05-01T06:41:17.525Z,75.26
2023-05-01T06:43:43.848Z,74.26
2023-05-01T06:46:10.318Z,74.50
2023-05-01T06:48:36.706Z,74.03
2023-05-01T06:51:03.095Z,74.38
2023-05-01T06:53:29.451Z,74.19
2023-05-01T06:55:55.824Z,73.29
2023-05-01T06:58:24.371Z,73.31
2023-05-01T07:00:51.091Z,72.92
2023-05-01T07:03:17.588Z,73.02
2023-05-01T07:05:44.111Z,73.40
2023-05-01T07:08:10.508Z,72.59
2023-05-01T07:10:37.545Z,72.48
2023-05-01T07:13:05.082Z,73.43
2023-05-01T07:15:31.679Z,73.37
2023-05-01T07:17:58.352Z,73.50
2023-05-01T07:20:24.868Z,72.93
2023-05-01T07:22:51.196Z,72.22
2023-05-01T07:25:17.890Z,72.01
2023-05-01T07:27:44.327Z,72.38
2023-05-01T07:30:11.168Z,71.27
2023-05-01T07:32:37.856Z,70.37
2023-05-01T07:35:04.982Z,70.04
2023-05-01T07:37:31.413Z,69.93
2023-05-01T07:39:58.605Z,69.84
2023-05-01T07:42:29.145Z,69.65
2023-05-01T07:44:55.472Z,69.28
2023-05-01T07:47:22.295Z,69.72
2023-05-01T07:49:49.626Z,69.09
2023-05-01T07:52:16.334Z,68.49
2023-05-01T07:54:42.793Z,68.48
2023-05-01T07:57:09.250Z,70.18
2023-05-01T07:59:35.616Z,69.84
2023-05-01T08:02:02.023Z,69.73
2023-05-01T08:04:29.559Z,69.35
2023-05-01T08:06:56.264Z,69.47
2023-05-01T08:09:22.856Z,69.30
2023-05-01T08:11:49.184Z,68.46
2023-05-01T08:14:17.531Z,68.88
2023-05-01T08:16:44.245Z,68.43
2023-05-01T08:19:10.679Z,68.94
2023-05-01T08:21:37.717Z,68.80
2023-05-01T08:24:04.275Z,69.63
2023-05-01T08:26:30.741Z,69.92
2023-05-01T08:28:57.217Z,69.87
2023-05-01T08:31:25.188Z,70.10
2023-05-01T08:33:51.634Z,70.37
2023-05-01T08:36:20.030Z,69.63
2023-05-01T08:38:47.747Z,70.10
2023-05-01T08:41:22.098Z,69.57
2023-05-01T08:43:49.336Z,69.84
2023-05-01T08:46:39.093Z,70.41
2023-05-01T08:49:07.008Z,70.40
2023-05-01T08:51:34.856Z,68.27
2023-05-01T08:54:03.459Z,69.57
2023-05-01T08:56:31.566Z,70.22
2023-05-01T08:59:01.028Z,69.41
2023-05-01T09:01:28.151Z,70.07
2023-05-01T09:03:55.428Z,70.25
2023-05-01T09:06:22.589Z,69.65
2023-05-01T09:08:48.992Z,69.49
2023-05-01T09:11:15.478Z,68.27
2023-05-01T09:13:41.821Z,67.97
2023-05-01T09:16:08.458Z,68.16
2023-05-01T09:18:35.961Z,67.89
2023-05-01T09:21:03.386Z,68.22
2023-05-01T09:23:32.031Z,68.32
2023-05-01T09:25:59.886Z,67.61
2023-05-01T09:28:46.055Z,68.27
2023-05-01T09:31:28.861Z,67.30
2023-05-01T09:33:56.808Z,67.25
2023-05-01T09:36:25.279Z,64.54
2023-05-01T09:38:52.134Z,63.63
2023-05-01T09:41:20.818Z,63.45
2023-05-01T09:43:51.615Z,63.00
2023-05-01T09:46:18.397Z,62.47
2023-05-01T09:49:03.088Z,62.74
2023-05-01T09:51:31.494Z,61.38
2023-05-01T09:53:59.632Z,57.76
2023-05-01T09:56:31.651Z,59.79
2023-05-01T09:59:13.922Z,58.88
2023-05-01T10:01:42.484Z,57.62
2023-05-01T10:04:09.965Z,58.21
2023-05-01T10:06:37.692Z,57.24
2023-05-01T10:09:06.854Z,57.08
2023-05-01T10:11:49.291Z,57.21
2023-05-01T10:14:16.273Z,56.68
2023-05-01T10:16:43.167Z,54.58
2023-05-01T10:19:10.069Z,54.83
2023-05-01T10:21:36.967Z,54.09
2023-05-01T10:24:04.037Z,55.11
2023-05-01T10:26:30.568Z,54.78
2023-05-01T10:28:59.416Z,54.29
2023-05-01T10:31:29.426Z,53.85
2023-05-01T10:33:56.428Z,52.88
2023-05-01T10:36:32.959Z,52.51
2023-05-01T10:39:00.797Z,52.26
2023-05-01T10:41:58.114Z,54.25
2023-05-01T10:44:27.910Z,52.60
2023-05-01T10:46:55.324Z,50.76
2023-05-01T10:49:22.546Z,49.33
2023-05-01T10:51:58.369Z,52.44
2023-05-01T10:54:32.954Z,49.51
2023-05-01T10:57:01.716Z,50.60
2023-05-01T10:59:59.692Z,51.79
2023-05-01T11:02:26.418Z,51.47
2023-05-01T11:04:54.294Z,50.34
2023-05-01T11:07:22.370Z,52.23
2023-05-01T11:09:58.708Z,50.41
2023-05-01T11:12:46.976Z,52.26
2023-05-01T11:15:25.801Z,51.89
2023-05-01T11:17:52.612Z,49.70
2023-05-01T11:20:25.203Z,49.05
2023-05-01T11:22:57.060Z,48.54
2023-05-01T11:25:33.522Z,51.40
2023-05-01T11:28:01.857Z,53.95
2023-05-01T11:30:38.476Z,52.34
2023-05-01T11:33:05.824Z,50.73
2023-05-01T11:35:33.209Z,51.57
2023-05-01T11:37:59.579Z,51.51
2023-05-01T11:40:31.587Z,52.00
2023-05-01T11:43:08.741Z,52.23
2023-05-01T11:45:37.190Z,50.64
2023-05-01T11:48:05.260Z,48.31
2023-05-01T11:50:36.784Z,50.20
2023-05-01T11:53:07.934Z,51.28
2023-05-01T11:55:35.192Z,49.45
2023-05-01T11:58:02.670Z,48.76
2023-05-01T12:00:36.579Z,47.55
2023-05-01T12:03:14.413Z,47.53
2023-05-01T12:05:43.193Z,49.42
2023-05-01T12:08:11.240Z,46.29
2023-05-01T12:10:39.650Z,47.10
2023-05-01T12:13:07.597Z,48.02
2023-05-01T12:15:39.665Z,50.32
2023-05-01T12:18:06.289Z,48.79
2023-05-01T12:20:58.896Z,52.04
2023-05-01T12:23:40.115Z,52.99
2023-05-01T12:26:23.630Z,52.32
2023-05-01T12:29:10.141Z,52.05
2023-05-01T12:31:38.221Z,54.30
2023-05-01T12:34:06.569Z,55.69
2023-05-01T12:36:35.852Z,56.07
2023-05-01T12:39:04.475Z,55.38
2023-05-01T12:41:44.261Z,56.46
2023-05-01T12:44:24.547Z,57.04
2023-05-01T12:47:01.053Z,58.40
2023-05-01T12:49:28.597Z,56.68
2023-05-01T12:52:00.864Z,56.45
2023-05-01T12:54:29.312Z,56.51
2023-05-01T12:57:14.409Z,58.61
2023-05-01T12:59:42.596Z,57.76
2023-05-01T13:02:11.347Z,59.01
2023-05-01T13:04:39.907Z,57.38
2023-05-01T13:07:17.629Z,56.75
2023-05-01T13:09:58.155Z,58.49
2023-05-01T13:12:26.279Z,57.41
2023-05-01T13:14:53.244Z,56.10
2023-05-01T13:17:31.251Z,57.36
2023-05-01T13:20:03.948Z,57.68
2023-05-01T13:22:34.694Z,58.84
2023-05-01T13:25:02.976Z,57.32
2023-05-01T13:27:29.595Z,59.53
2023-05-01T13:29:58.189Z,61.02
2023-05-01T13:32:25.850Z,62.00
2023-05-01T13:34:58.186Z,61.79
2023-05-01T13:37:24.673Z,62.15
2023-05-01T13:39:51.075Z,62.45
2023-05-01T13:42:24.916Z,61.74
2023-05-01T13:44:54.949Z,61.31
2023-05-01T13:47:26.401Z,61.16
2023-05-01T13:49:52.974Z,61.74
2023-05-01T13:52:20.921Z,61.29
2023-05-01T13:54:48.474Z,62.35
2023-05-01T13:57:16.870Z,60.25
2023-05-01T13:59:45.317Z,59.75
2023-05-01T14:02:28.252Z,59.96
2023-05-01T14:04:55.267Z,58.79
2023-05-01T14:07:23.671Z,58.64
2023-05-01T14:09:54.961Z,58.75
2023-05-01T14:12:28.055Z,58.30
2023-05-01T14:14:54.526Z,57.05
2023-05-01T14:17:34.594Z,58.08
2023-05-01T14:20:02.222Z,58.18
2023-05-01T14:22:53.386Z,57.05
2023-05-01T14:25:31.549Z,54.76
2023-05-01T14:28:00.343Z,54.45
2023-05-01T14:30:33.588Z,53.22
2023-05-01T14:33:06.152Z,52.42
2023-05-01T14:35:33.608Z,51.65
2023-05-01T14:38:05.239Z,51.25
2023-05-01T14:40:33.928Z,52.70
2023-05-01T14:43:00.774Z,50.74
2023-05-01T14:45:27.185Z,49.42
2023-05-01T14:47:53.642Z,49.64
2023-05-01T14:50:22.425Z,48.03
2023-05-01T14:52:56.788Z,48.69
2023-05-01T14:55:29.406Z,50.24
2023-05-01T14:57:56.924Z,48.81
2023-05-01T15:00:24.044Z,50.34
2023-05-01T15:02:51.056Z,50.77
2023-05-01T15:05:17.772Z,52.32
2023-05-01T15:07:44.328Z,53.20
2023-05-01T15:10:11.038Z,52.20
2023-05-01T15:12:37.425Z,54.25
2023-05-01T15:15:04.212Z,54.01
2023-05-01T15:17:32.356Z,53.36
2023-05-01T15:19:58.965Z,54.71
2023-05-01T15:22:26.192Z,53.73
2023-05-01T15:24:52.544Z,54.22
2023-05-01T15:27:18.887Z,55.17
2023-05-01T15:29:45.255Z,56.05
2023-05-01T15:32:13.047Z,55.42
2023-05-01T15:34:40.048Z,56.14
2023-05-01T15:37:06.894Z,56.54
2023-05-01T15:39:33.358Z,56.22
2023-05-01T15:42:00.824Z,57.02
2023-05-01T15:44:28.549Z,56.32
2023-05-01T15:46:55.043Z,55.34
2023-05-01T15:49:21.465Z,55.53
2023-05-01T15:51:47.779Z,56.81
2023-05-01T15:54:14.167Z,56.25
2023-05-01T15:56:40.585Z,56.27
2023-05-01T15:59:07.859Z,56.60
2023-05-01T16:01:35.421Z,58.11
2023-05-01T16:04:03.526Z,56.06
2023-05-01T16:06:31.161Z,56.93
2023-05-01T16:08:58.763Z,57.13
2023-05-01T16:11:25.129Z,57.18
2023-05-01T16:13:52.733Z,57.46
2023-05-01T16:16:25.278Z,57.47
2023-05-01T16:18:55.144Z,57.46
2023-05-01T16:21:22.351Z,58.20
2023-05-01T16:23:49.176Z,58.21
2023-05-01T16:26:21.660Z,59.09
2023-05-01T16:28:48.520Z,59.22
2023-05-01T16:31:26.734Z,58.98
2023-05-01T16:33:54.016Z,59.42
2023-05-01T16:36:21.371Z,59.98
2023-05-01T16:38:47.811Z,59.62
2023-05-01T16:41:16.031Z,59.55
2023-05-01T16:43:42.555Z,61.07
2023-05-01T16:46:09.658Z,61.82
2023-05-01T16:48:36.336Z,62.64
2023-05-01T16:51:06.097Z,63.25
2023-05-01T16:53:32.857Z,62.92
2023-05-01T16:55:59.215Z,62.88
2023-05-01T16:58:27.824Z,63.67
2023-05-01T17:00:55.423Z,63.39
2023-05-01T17:03:21.760Z,63.25
2023-05-01T17:05:48.105Z,63.83
2023-05-01T17:08:14.434Z,64.14
2023-05-01T17:10:40.870Z,64.57
2023-05-01T17:13:07.705Z,64.53
2023-05-01T17:15:34.067Z,65.01
2023-05-01T17:18:00.440Z,65.40
2023-05-01T17:20:27.293Z,65.57
2023-05-01T17:22:53.898Z,65.63
2023-05-01T17:25:20.348Z,65.77
2023-05-01T17:27:46.698Z,65.68
2023-05-01T17:30:13.621Z,66.43
2023-05-01T17:32:40.103Z,66.37
2023-05-01T17:35:06.845Z,66.70
2023-05-01T17:37:33.383Z,67.04
2023-05-01T17:40:04.960Z,66.92
2023-05-01T17:42:31.353Z,67.22
2023-05-01T17:44:57.680Z,66.98
2023-05-01T17:47:26.128Z,67.14
2023-05-01T17:49:52.774Z,67.31
2023-05-01T17:52:19.110Z,67.22
2023-05-01T17:54:45.444Z,67.24
2023-05-01T17:57:11.873Z,67.38
2023-05-01T17:59:38.215Z,66.76
2023-05-01T18:02:04.602Z,66.48
2023-05-01T18:04:31.047Z,66.61
2023-05-01T18:06:57.940Z,66.55
2023-05-01T18:09:24.331Z,66.43
2023-05-01T18:11:50.822Z,66.28
2023-05-01T18:14:17.187Z,66.06
2023-05-01T18:16:43.562Z,65.87
2023-05-01T18:19:09.948Z,66.06
2023-05-01T18:21:36.451Z,66.47
2023-05-01T18:24:03.217Z,66.86
2023-05-01T18:26:30.705Z,67.05
2023-05-01T18:28:57.034Z,67.29
2023-05-01T18:31:23.524Z,67.61
2023-05-01T18:33:49.900Z,67.87
2023-05-01T18:36:16.391Z,67.84
2023-05-01T18:38:42.736Z,68.10
2023-05-01T18:41:09.086Z,68.52
2023-05-01T18:43:35.576Z,68.72
2023-05-01T18:46:02.095Z,69.14
2023-05-01T18:48:28.557Z,69.26
2023-05-01T18:51:07.226Z,69.67
2023-05-01T18:53:34.697Z,69.75
2023-05-01T18:56:01.206Z,69.96
2023-05-01T18:58:27.604Z,70.31
2023-05-01T19:00:55.133Z,70.37
2023-05-01T19:03:21.444Z,71.09
2023-05-01T19:05:48.042Z,71.16
2023-05-01T19:08:14.544Z,71.26
2023-05-01T19:10:42.296Z,71.52
2023-05-01T19:13:08.665Z,71.49
2023-05-01T19:15:36.267Z,71.80
2023-05-01T19:18:02.775Z,71.78
2023-05-01T19:20:29.230Z,71.99
2023-05-01T19:22:55.571Z,72.00
2023-05-01T19:25:22.016Z,71.74
2023-05-01T19:27:49.098Z,71.82
2023-05-01T19:30:16.253Z,72.42
2023-05-01T19:32:42.726Z,71.92
2023-05-01T19:35:11.430Z,72.05
2023-05-01T19:37:39.647Z,72.13
2023-05-01T19:40:06.729Z,72.69
2023-05-01T19:42:33.773Z,72.83
2023-05-01T19:45:00.411Z,72.78
2023-05-01T19:47:27.901Z,72.81
2023-05-01T19:49:54.310Z,73.31
2023-05-01T19:52:21.083Z,73.32
2023-05-01T19:54:47.510Z,73.78
2023-05-01T19:57:14.350Z,73.70
2023-05-01T19:59:41.226Z,73.60
2023-05-01T20:02:07.730Z,73.92
2023-05-01T20:07:02.622Z,73.93
2023-05-01T20:09:28.947Z,74.01
2023-05-01T20:11:55.304Z,74.34
2023-05-01T20:14:21.738Z,74.96
2023-05-01T20:16:50.414Z,75.33
2023-05-01T20:19:17.719Z,75.86
2023-05-01T20:21:44.250Z,76.38
2023-05-01T20:24:11.222Z,76.68
2023-05-01T20:26:37.547Z,77.12
2023-05-01T20:29:04.060Z,78.04
2023-05-01T20:31:30.635Z,78.67
2023-05-01T20:33:57.026Z,79.51
2023-05-01T20:36:25.272Z,79.86
2023-05-01T20:38:53.173Z,79.87
2023-05-01T20:41:19.637Z,80.40
2023-05-01T20:43:46.406Z,80.37
2023-05-01T20:46:12.819Z,80.60
2023-05-01T20:48:39.179Z,80.93
2023-05-01T20:51:05.595Z,80.73
2023-05-01T20:53:32.030Z,81.24
2023-05-01T20:55:58.510Z,81.34
2023-05-01T20:58:24.907Z,81.36
2023-05-01T21:00:53.834Z,81.70
2023-05-01T21:03:20.356Z,81.72
2023-05-01T21:05:47.657Z,81.85
2023-05-01T21:08:14.987Z,81.42
2023-05-01T21:10:41.459Z,81.20
2023-05-01T21:13:07.830Z,81.70
2023-05-01T21:15:34.259Z,81.88
2023-05-01T21:18:01.241Z,82.39
2023-05-01T21:20:32.940Z,81.97
2023-05-01T21:23:00.436Z,82.08
2023-05-01T21:25:28.293Z,82.25
2023-05-01T21:27:55.060Z,82.49
2023-05-01T21:30:29.704Z,82.88
2023-05-01T21:32:58.103Z,82.36
2023-05-01T21:35:26.424Z,82.85
2023-05-01T21:37:52.876Z,82.86
2023-05-01T21:40:19.709Z,83.00
2023-05-01T21:42:46.436Z,82.98
2023-05-01T21:45:14.824Z,82.98
2023-05-01T21:47:51.568Z,83.27
2023-05-01T21:50:19.987Z,82.94
2023-05-01T21:52:48.996Z,82.81
2023-05-01T21:55:24.873Z,82.93
2023-05-01T21:57:51.262Z,83.07
2023-05-01T22:00:18.965Z,82.99
2023-05-01T22:02:47.922Z,83.17
2023-05-01T22:05:16.412Z,83.31
2023-05-01T22:07:45.011Z,82.47
2023-05-01T22:10:14.117Z,82.52
2023-05-01T22:12:41.779Z,82.51
2023-05-01T22:15:10.174Z,82.27
2023-05-01T22:17:37.594Z,81.86
2023-05-01T22:20:08.620Z,82.05
2023-05-01T22:22:35.662Z,81.99
2023-05-01T22:25:02.726Z,82.27
2023-05-01T22:27:29.287Z,82.09
2023-05-01T22:29:55.670Z,82.04
2023-05-01T22:32:22.123Z,82.19
2023-05-01T22:34:48.622Z,82.13
2023-05-01T22:37:15.606Z,82.40
2023-05-01T22:39:42.532Z,82.02
2023-05-01T22:42:08.869Z,81.69
2023-05-01T22:44:35.637Z,81.67
2023-05-01T22:47:02.253Z,81.72
2023-05-01T22:49:28.836Z,81.98
2023-05-01T22:51:55.963Z,81.79
2023-05-01T22:54:22.428Z,82.09
2023-05-01T22:56:49.880Z,82.07
2023-05-01T22:59:16.994Z,82.23
2023-05-01T23:01:43.948Z,82.12
2023-05-01T23:04:10.941Z,82.12
2023-05-01T23:06:37.684Z,82.13
2023-05-01T23:09:04.517Z,81.94
2023-05-01T23:11:32.460Z,81.55
2023-05-01T23:13:59.449Z,81.95
2023-05-01T23:16:26.170Z,81.95
2023-05-01T23:18:55.797Z,81.92
2023-05-01T23:21:22.206Z,82.33
2023-05-01T23:23:48.878Z,82.38
2023-05-01T23:26:28.997Z,82.87
2023-05-01T23:28:55.385Z,83.33
2023-05-01T23:31:26.174Z,83.46
2023-05-01T23:33:53.672Z,83.80
2023-05-01T23:36:20.618Z,83.83
2023-05-01T23:38:47.278Z,83.48
2023-05-01T23:41:14.491Z,83.48
2023-05-01T23:43:41.338Z,83.56
2023-05-01T23:46:08.127Z,83.62
2023-05-01T23:48:34.795Z,83.81
2023-05-01T23:51:02.652Z,84.13
2023-05-01T23:53:29.244Z,84.27
2023-05-01T23:55:55.676Z,84.39
2023-05-01T23:58:22.833Z,84.12
